Lambertville, New Jersey
Current Conditions -  °F | °C
As of 12:22 PM on Wednesday 26 Nov 2014 (Local Time) from KTTN Reporting Station
Light Snow Light Snow  
Wind Chill: 25°   Ceiling: 400
Heat Index: 33°   Visibility: 0.75mi
Dew Point: 31°   Wind: 9mph
Humidity: 92%   Direction: 10°N
Pressure: 30.01"   Gusts: NA
Location:  40.37°N, 74.94°W
Report Text: KTTN 261722Z 01008KT 3/4SM -SN BR BKN004 OVC012 01/M01 A3001 RMK AO2 P0001 T00061006
Loading
Personal Weather Stations






























Interactive Weather Map New forecast layout! Learn more

10-Day Weather Forecast

Advertisements
Track Severe Weather on mobile